createdAt,value
2018-05-18T00:02:10.705Z,15.90
2018-05-18T00:04:40.518Z,17.97
2018-05-18T00:07:10.325Z,14.63
2018-05-18T00:09:40.039Z,15.93
2018-05-18T00:12:09.770Z,16.03
2018-05-18T00:14:39.350Z,19.67
2018-05-18T00:17:09.470Z,19.03
2018-05-18T00:19:38.978Z,14.23
2018-05-18T00:22:08.888Z,13.53
2018-05-18T00:24:38.804Z,14.37
2018-05-18T00:27:08.934Z,14.07
2018-05-18T00:29:38.845Z,14.97
2018-05-18T00:32:08.975Z,13.57
2018-05-18T00:34:38.575Z,17.90
2018-05-18T00:37:08.476Z,12.77
2018-05-18T00:39:38.095Z,16.00
2018-05-18T00:42:08.431Z,14.67
2018-05-18T00:44:38.011Z,16.57
2018-05-18T00:47:08.354Z,17.53
2018-05-18T00:49:37.958Z,15.37
2018-05-18T00:52:07.555Z,16.60
2018-05-18T00:54:37.361Z,15.90
2018-05-18T00:57:06.967Z,16.47
2018-05-18T00:59:36.369Z,15.57
2018-05-18T01:02:05.903Z,16.53
2018-05-18T01:04:35.905Z,22.40
2018-05-18T01:07:05.911Z,16.67
2018-05-18T01:09:35.727Z,19.10
2018-05-18T01:12:05.545Z,17.77
2018-05-18T01:14:34.930Z,12.33
2018-05-18T01:17:04.746Z,14.90
2018-05-18T01:19:34.573Z,16.90
2018-05-18T01:22:04.061Z,14.20
2018-05-18T01:24:33.785Z,16.70
2018-05-18T01:27:03.480Z,19.47
2018-05-18T01:29:33.196Z,15.67
2018-05-18T01:32:02.798Z,17.53
2018-05-18T01:34:32.405Z,14.70
2018-05-18T01:37:02.013Z,16.60
2018-05-18T01:39:31.753Z,16.93
2018-05-18T01:42:01.746Z,15.57
2018-05-18T01:44:31.349Z,18.80
2018-05-18T01:47:01.174Z,17.60
2018-05-18T01:49:30.654Z,19.70
2018-05-18T01:52:00.374Z,22.67
2018-05-18T01:54:30.406Z,23.67
2018-05-18T01:57:00.113Z,17.43
2018-05-18T01:59:29.905Z,17.73
2018-05-18T02:01:59.920Z,19.60
2018-05-18T02:04:29.634Z,21.37
2018-05-18T02:06:59.239Z,17.63
2018-05-18T02:09:29.387Z,23.50
2018-05-18T02:11:59.073Z,18.43
2018-05-18T02:14:28.584Z,18.53
2018-05-18T02:16:58.382Z,18.03
2018-05-18T02:19:28.199Z,20.20
2018-05-18T02:21:57.921Z,19.67
2018-05-18T02:24:27.612Z,23.53
2018-05-18T02:26:57.324Z,25.27
2018-05-18T02:29:27.044Z,19.87
2018-05-18T02:31:56.635Z,25.60
2018-05-18T02:34:26.367Z,25.27
2018-05-18T02:36:56.361Z,19.97
2018-05-18T02:39:26.175Z,26.03
2018-05-18T02:41:55.681Z,22.70
2018-05-18T02:44:25.387Z,25.47
2018-05-18T02:46:55.206Z,25.20
2018-05-18T02:49:24.807Z,21.87
2018-05-18T02:51:54.412Z,22.23
2018-05-18T02:54:24.025Z,26.73
2018-05-18T02:56:53.947Z,28.83
2018-05-18T02:59:24.579Z,34.87
2018-05-18T03:01:54.283Z,23.87
2018-05-18T03:04:23.988Z,22.33
2018-05-18T03:06:53.593Z,29.03
2018-05-18T03:09:23.415Z,36.07
2018-05-18T03:11:53.014Z,26.87
2018-05-18T03:14:23.025Z,23.83
2018-05-18T03:16:52.737Z,26.87
2018-05-18T03:19:22.758Z,24.73
2018-05-18T03:21:52.584Z,25.13
2018-05-18T03:24:22.721Z,25.00
2018-05-18T03:26:52.395Z,27.80
2018-05-18T03:29:22.314Z,29.57
2018-05-18T03:31:52.552Z,31.97
2018-05-18T03:34:22.957Z,28.77
2018-05-18T03:36:53.184Z,20.87
2018-05-18T03:39:22.887Z,25.17
2018-05-18T03:41:53.418Z,22.27
2018-05-18T03:44:23.441Z,24.57
2018-05-18T03:46:53.551Z,30.10
2018-05-18T03:49:23.049Z,26.40
2018-05-18T03:51:52.984Z,27.00
2018-05-18T03:54:23.186Z,21.17
2018-05-18T03:56:53.134Z,28.43
2018-05-18T03:59:23.433Z,23.70
2018-05-18T04:01:53.163Z,32.67
2018-05-18T04:04:22.946Z,23.00
2018-05-18T04:06:53.491Z,23.90
2018-05-18T04:09:23.196Z,28.30
2018-05-18T04:11:52.904Z,23.90
2018-05-18T04:14:22.921Z,25.97
2018-05-18T04:16:52.722Z,20.93
2018-05-18T04:19:22.635Z,18.70
2018-05-18T04:21:52.344Z,21.67
2018-05-18T04:24:22.490Z,18.90
2018-05-18T04:26:51.967Z,22.00
2018-05-18T04:29:21.879Z,20.83
2018-05-18T04:31:51.487Z,18.13
2018-05-18T04:34:20.994Z,19.67
2018-05-18T04:36:50.801Z,17.67
2018-05-18T04:39:20.544Z,23.63
2018-05-18T04:41:50.136Z,19.97
2018-05-18T04:44:19.627Z,15.73
2018-05-18T04:46:49.354Z,27.83
2018-05-18T04:49:19.055Z,15.47
2018-05-18T04:51:48.876Z,18.67
2018-05-18T04:54:18.361Z,18.27
2018-05-18T04:56:48.069Z,16.30
2018-05-18T04:59:17.680Z,21.83
2018-05-18T05:01:47.490Z,21.00
2018-05-18T05:04:16.993Z,19.87
2018-05-18T05:06:46.401Z,19.63
2018-05-18T05:09:16.007Z,24.97
2018-05-18T05:11:45.815Z,26.80
2018-05-18T05:14:15.836Z,27.03
2018-05-18T05:16:45.558Z,23.20
2018-05-18T05:19:14.940Z,20.40
2018-05-18T05:21:44.443Z,19.93
2018-05-18T05:24:13.850Z,21.93
2018-05-18T05:26:43.249Z,21.87
2018-05-18T05:29:12.548Z,18.70
2018-05-18T05:31:41.950Z,19.50
2018-05-18T05:34:11.774Z,21.47
2018-05-18T05:36:41.590Z,23.73
2018-05-18T05:39:11.191Z,20.33
2018-05-18T05:41:40.825Z,18.53
2018-05-18T05:44:10.509Z,18.77
2018-05-18T05:46:40.117Z,21.90
2018-05-18T05:49:09.916Z,22.20
2018-05-18T05:51:39.836Z,15.70
2018-05-18T05:54:09.565Z,21.33
2018-05-18T05:56:39.477Z,16.90
2018-05-18T05:59:09.598Z,23.30
2018-05-18T06:01:39.394Z,21.63
2018-05-18T06:04:09.404Z,22.43
2018-05-18T06:06:39.331Z,21.60
2018-05-18T06:09:09.024Z,21.30
2018-05-18T06:11:38.751Z,18.00
2018-05-18T06:14:08.564Z,21.03
2018-05-18T06:16:38.163Z,21.73
2018-05-18T06:19:07.877Z,21.27
2018-05-18T06:21:38.096Z,20.43
2018-05-18T06:24:07.905Z,26.70
2018-05-18T06:26:37.404Z,24.53
2018-05-18T06:29:07.003Z,24.83
2018-05-18T06:31:38.248Z,22.73
2018-05-18T06:34:11.564Z,19.70
2018-05-18T06:36:40.943Z,18.63
2018-05-18T06:39:10.565Z,25.13
2018-05-18T06:41:41.586Z,23.57
2018-05-18T06:44:16.014Z,23.93
2018-05-18T06:46:45.960Z,26.60
2018-05-18T06:49:17.373Z,22.70
2018-05-18T06:51:53.344Z,27.30
2018-05-18T06:54:23.451Z,26.53
2018-05-18T06:56:53.484Z,27.27
2018-05-18T06:59:30.037Z,26.57
2018-05-18T07:04:41.436Z,29.50
2018-05-18T07:07:10.945Z,30.07
2018-05-18T07:09:40.964Z,24.87
2018-05-18T07:12:10.587Z,34.90
2018-05-18T07:14:40.479Z,27.67
2018-05-18T07:17:09.876Z,28.27
2018-05-18T07:22:14.325Z,29.63
2018-05-18T07:24:44.547Z,28.57
2018-05-18T07:27:14.960Z,29.87
2018-05-18T07:29:45.405Z,29.10
2018-05-18T07:32:15.521Z,26.93
2018-05-18T07:34:45.018Z,28.73
2018-05-18T07:37:14.524Z,31.97
2018-05-18T07:44:51.844Z,28.87
2018-05-18T07:47:21.856Z,29.23
2018-05-18T07:49:51.584Z,32.70
2018-05-18T07:52:21.480Z,34.40
2018-05-18T07:54:51.499Z,34.60
2018-05-18T07:57:21.425Z,26.63
2018-05-18T07:59:51.545Z,30.37
2018-05-18T08:02:21.564Z,31.67
2018-05-18T08:04:51.358Z,32.77
2018-05-18T08:07:21.679Z,38.77
2018-05-18T08:09:51.488Z,32.03
2018-05-18T08:12:20.999Z,34.30
2018-05-18T08:14:51.012Z,28.13
2018-05-18T08:17:20.417Z,30.00
2018-05-18T08:19:50.543Z,32.17
2018-05-18T08:22:20.566Z,32.37
2018-05-18T08:24:50.367Z,38.70
2018-05-18T08:27:19.965Z,31.17
2018-05-18T08:29:49.805Z,28.30
2018-05-18T08:32:19.694Z,28.60
2018-05-18T08:34:49.917Z,35.77
2018-05-18T08:37:19.746Z,33.97
2018-05-18T08:39:49.432Z,26.80
2018-05-18T08:42:18.940Z,26.53
2018-05-18T08:44:48.983Z,32.33
2018-05-18T08:47:18.458Z,31.27
2018-05-18T08:49:47.964Z,35.03
2018-05-18T08:52:18.210Z,30.60
2018-05-18T08:54:47.694Z,33.27
2018-05-18T08:57:21.108Z,37.67
2018-05-18T08:59:50.693Z,31.97
2018-05-18T09:02:20.299Z,34.07
2018-05-18T09:04:50.219Z,23.83
2018-05-18T09:07:23.198Z,35.00
2018-05-18T09:09:53.521Z,34.73
2018-05-18T09:12:23.030Z,26.53
2018-05-18T09:14:53.049Z,31.97
2018-05-18T09:17:22.960Z,27.60
2018-05-18T09:19:53.088Z,32.90
2018-05-18T09:22:22.893Z,27.47
2018-05-18T09:24:56.406Z,27.10
2018-05-18T09:27:26.927Z,28.20
2018-05-18T09:29:57.467Z,37.17
2018-05-18T09:32:27.357Z,31.33
2018-05-18T09:34:57.070Z,26.47
2018-05-18T09:37:26.681Z,27.43
2018-05-18T09:39:56.429Z,24.73
2018-05-18T09:42:25.990Z,28.33
2018-05-18T09:44:55.589Z,30.57
2018-05-18T09:47:26.446Z,29.57
2018-05-18T09:49:55.939Z,26.37
2018-05-18T09:52:25.339Z,26.97
2018-05-18T09:54:55.111Z,25.30
2018-05-18T09:57:24.774Z,22.50
2018-05-18T09:59:54.398Z,28.67
2018-05-18T10:02:24.806Z,31.17
2018-05-18T10:04:54.807Z,24.23
2018-05-18T10:07:24.947Z,23.13
2018-05-18T10:09:54.838Z,26.93
2018-05-18T10:12:24.492Z,25.40
2018-05-18T10:14:54.586Z,29.23
2018-05-18T10:17:24.074Z,22.67
2018-05-18T10:19:53.781Z,24.87
2018-05-18T10:22:24.225Z,22.77
2018-05-18T10:24:53.815Z,29.27
2018-05-18T10:27:23.425Z,25.03
2018-05-18T10:29:53.585Z,21.50
2018-05-18T10:32:23.349Z,23.10
2018-05-18T10:34:53.185Z,18.37
2018-05-18T10:37:23.078Z,22.40
2018-05-18T10:39:52.599Z,23.17
2018-05-18T10:42:22.506Z,20.47
2018-05-18T10:44:52.325Z,20.63
2018-05-18T10:47:25.303Z,22.40
2018-05-18T10:49:54.897Z,21.93
2018-05-18T10:52:25.126Z,25.23
2018-05-18T10:54:55.052Z,20.43
2018-05-18T10:57:25.594Z,17.77
2018-05-18T10:59:55.476Z,24.97
2018-05-18T11:02:25.506Z,22.87
2018-05-18T11:04:55.529Z,24.17
2018-05-18T11:07:25.218Z,21.07
2018-05-18T11:09:54.725Z,20.13
2018-05-18T11:12:24.546Z,18.63
2018-05-18T11:14:54.174Z,25.63
2018-05-18T11:17:23.869Z,17.80
2018-05-18T11:19:54.305Z,21.03
2018-05-18T11:22:23.682Z,24.13
2018-05-18T11:24:53.190Z,19.67
2018-05-18T11:27:22.898Z,20.27
2018-05-18T11:29:53.746Z,22.67
2018-05-18T11:32:23.439Z,23.60
2018-05-18T11:34:53.969Z,21.87
2018-05-18T11:37:23.906Z,17.60
2018-05-18T11:39:53.905Z,21.53
2018-05-18T11:42:23.400Z,24.30
2018-05-18T11:44:53.320Z,17.57
2018-05-18T11:47:23.953Z,19.97
2018-05-18T11:49:53.967Z,19.27
2018-05-18T11:52:25.321Z,19.70
2018-05-18T11:54:55.630Z,19.63
2018-05-18T11:57:25.466Z,21.43
2018-05-18T11:59:55.055Z,21.03
2018-05-18T12:02:25.019Z,20.03
2018-05-18T12:04:54.788Z,19.90
2018-05-18T12:07:25.307Z,20.03
2018-05-18T12:09:55.325Z,19.93
2018-05-18T12:12:25.567Z,20.20
2018-05-18T12:14:55.457Z,20.70
2018-05-18T12:17:25.377Z,17.77
2018-05-18T12:19:55.099Z,16.63
2018-05-18T12:22:24.698Z,21.03
2018-05-18T12:24:54.730Z,17.13
2018-05-18T12:27:24.313Z,22.37
2018-05-18T12:29:54.023Z,22.57
2018-05-18T12:32:23.799Z,20.90
2018-05-18T12:34:53.340Z,17.67
2018-05-18T12:37:23.253Z,20.77
2018-05-18T12:39:53.789Z,17.07
2018-05-18T12:47:42.984Z,18.50
2018-05-18T12:50:17.926Z,18.77
2018-05-18T12:52:48.750Z,20.87
2018-05-18T12:55:19.479Z,15.50
2018-05-18T12:57:49.400Z,17.20
2018-05-18T13:00:19.000Z,22.60
2018-05-18T13:02:48.726Z,20.53
2018-05-18T13:24:11.990Z,18.13
2018-05-18T13:26:43.236Z,21.63
2018-05-18T13:29:14.723Z,23.40
2018-05-18T13:31:45.847Z,18.80
2018-05-18T13:34:15.538Z,16.80
2018-05-18T13:36:45.461Z,19.23
2018-05-18T13:39:15.160Z,20.23
2018-05-18T13:41:46.424Z,17.97
2018-05-18T13:44:17.157Z,18.93
2018-05-18T13:46:48.406Z,17.50
2018-05-18T13:49:18.114Z,16.13
2018-05-18T13:51:47.908Z,17.07
2018-05-18T13:54:18.154Z,18.83
2018-05-18T13:56:48.590Z,18.90
2018-05-18T13:59:18.057Z,18.93
2018-05-18T14:01:47.569Z,19.07
2018-05-18T14:04:17.087Z,16.03
2018-05-18T14:06:46.793Z,18.17
2018-05-18T14:09:16.382Z,19.17
2018-05-18T14:11:46.106Z,22.20
2018-05-18T14:14:15.700Z,15.97
2018-05-18T14:16:45.623Z,19.00
2018-05-18T14:19:15.844Z,15.00
2018-05-18T14:21:46.058Z,19.63
2018-05-18T14:24:15.765Z,18.13
2018-05-18T14:26:45.532Z,15.70
2018-05-18T14:29:15.083Z,16.53
2018-05-18T14:31:44.814Z,18.23
2018-05-18T14:34:14.859Z,15.73
2018-05-18T14:36:44.822Z,15.40
2018-05-18T14:39:14.638Z,16.20
2018-05-18T14:41:44.870Z,19.57
2018-05-18T14:44:14.364Z,17.30
2018-05-18T14:46:43.970Z,19.63
2018-05-18T14:49:13.806Z,19.73
2018-05-18T14:51:43.571Z,17.83
2018-05-18T14:54:13.742Z,15.30
2018-05-18T14:56:43.418Z,15.17
2018-05-18T14:59:13.034Z,15.67
2018-05-18T15:01:42.743Z,15.07
2018-05-18T15:04:12.456Z,17.60
2018-05-18T15:06:42.256Z,18.63
2018-05-18T15:09:12.073Z,15.17
2018-05-18T15:11:42.212Z,18.53
2018-05-18T15:14:12.123Z,18.93
2018-05-18T15:16:41.837Z,17.40
2018-05-18T15:19:11.591Z,17.43
2018-05-18T15:21:41.453Z,19.40
2018-05-18T15:24:11.472Z,16.33
2018-05-18T15:26:40.956Z,16.03
2018-05-18T15:29:10.463Z,15.50
2018-05-18T15:31:40.391Z,17.17
2018-05-18T15:34:10.512Z,14.87
2018-05-18T15:36:40.131Z,12.53
2018-05-18T15:39:10.015Z,14.63
2018-05-18T15:41:39.619Z,14.53
2018-05-18T15:44:09.452Z,15.23
2018-05-18T15:46:39.571Z,17.30
2018-05-18T15:49:09.359Z,17.53
2018-05-18T15:51:39.380Z,15.30
2018-05-18T15:54:09.297Z,17.67
2018-05-18T15:56:39.431Z,15.30
2018-05-18T15:59:09.051Z,14.40
2018-05-18T16:01:38.861Z,15.40
2018-05-18T16:04:08.447Z,16.67
2018-05-18T16:06:38.570Z,15.77
2018-05-18T16:09:08.473Z,13.03
2018-05-18T16:11:38.091Z,14.20
2018-05-18T16:14:08.011Z,13.80
2018-05-18T16:16:38.131Z,12.33
2018-05-18T16:19:07.921Z,16.43
2018-05-18T16:21:37.752Z,14.93
2018-05-18T16:24:07.347Z,15.77
2018-05-18T16:26:37.056Z,14.33
2018-05-18T16:29:06.772Z,16.17
2018-05-18T16:31:36.491Z,13.13
2018-05-18T16:34:06.826Z,13.70
2018-05-18T16:36:36.511Z,13.70
2018-05-18T16:39:06.331Z,18.23
2018-05-18T16:41:35.813Z,20.93
2018-05-18T16:44:05.324Z,18.00
2018-05-18T16:46:35.356Z,20.37
2018-05-18T16:49:05.459Z,16.93
2018-05-18T16:51:34.968Z,16.87
2018-05-18T16:54:04.365Z,11.70
2018-05-18T16:56:34.076Z,10.20
2018-05-18T16:59:03.790Z,10.93
2018-05-18T17:01:33.591Z,10.90
2018-05-18T17:04:03.204Z,12.27
2018-05-18T17:06:33.128Z,9.57
2018-05-18T17:09:02.622Z,7.50
2018-05-18T17:11:32.227Z,8.60
2018-05-18T17:14:01.836Z,4.80
2018-05-18T17:16:31.451Z,5.20
2018-05-18T17:19:01.271Z,5.03
2018-05-18T17:21:30.971Z,5.80
2018-05-18T17:24:00.466Z,4.80
2018-05-18T17:26:29.966Z,4.70
2018-05-18T17:28:59.694Z,6.97
2018-05-18T17:31:29.564Z,10.00
2018-05-18T17:33:59.731Z,8.57
2018-05-18T17:36:29.425Z,4.80
2018-05-18T17:38:59.025Z,4.43
2018-05-18T17:41:29.040Z,6.37
2018-05-18T17:43:58.571Z,5.80
2018-05-18T17:46:27.949Z,4.10
2018-05-18T17:48:58.037Z,4.78
2018-05-18T17:51:27.985Z,4.45
2018-05-18T17:53:57.808Z,4.70
2018-05-18T17:56:28.839Z,8.50
2018-05-18T17:58:59.468Z,5.67
2018-05-18T18:01:28.988Z,6.87
2018-05-18T18:03:59.019Z,6.30
2018-05-18T18:06:28.931Z,7.10
2018-05-18T18:08:58.405Z,6.33
2018-05-18T18:11:28.224Z,6.53
2018-05-18T18:13:58.009Z,9.33
2018-05-18T18:16:27.591Z,7.43
2018-05-18T18:18:57.146Z,7.20
2018-05-18T18:21:27.052Z,6.90
2018-05-18T18:23:56.772Z,5.47
2018-05-18T18:26:26.490Z,6.13
2018-05-18T18:28:56.193Z,4.90
2018-05-18T18:31:25.910Z,6.03
2018-05-18T18:33:55.531Z,5.10
2018-05-18T18:36:25.120Z,5.17
2018-05-18T18:38:55.094Z,7.67
2018-05-18T18:41:24.725Z,6.53
2018-05-18T18:43:54.739Z,5.43
2018-05-18T18:46:24.466Z,7.73
2018-05-18T18:48:54.072Z,6.73
2018-05-18T18:51:23.974Z,7.70
2018-05-18T18:53:53.684Z,9.07
2018-05-18T18:56:23.599Z,11.13
2018-05-18T18:58:53.262Z,12.23
2018-05-18T19:01:23.428Z,13.73
2018-05-18T19:03:53.343Z,12.70
2018-05-18T19:06:23.251Z,14.30
2018-05-18T19:08:53.568Z,14.33
2018-05-18T19:11:23.295Z,14.93
2018-05-18T19:13:52.999Z,20.33
2018-05-18T19:16:24.859Z,17.50
2018-05-18T19:18:54.363Z,18.70
2018-05-18T19:21:24.788Z,19.30
2018-05-18T19:23:54.804Z,20.87
2018-05-18T19:26:25.432Z,20.93
2018-05-18T19:28:56.078Z,21.70
2018-05-18T19:31:26.390Z,21.27
2018-05-18T19:33:56.416Z,19.47
2018-05-18T19:36:26.361Z,23.77
2018-05-18T19:38:56.446Z,27.30
2018-05-18T19:41:26.148Z,28.37
2018-05-18T19:43:55.959Z,25.87
2018-05-18T19:46:25.778Z,19.53
2018-05-18T19:48:55.490Z,21.33
2018-05-18T19:51:25.495Z,27.17
2018-05-18T19:53:55.513Z,24.90
2018-05-18T19:56:27.064Z,27.30
2018-05-18T19:58:59.023Z,27.10
2018-05-18T20:01:28.955Z,24.57
2018-05-18T20:03:59.060Z,25.70
2018-05-18T20:06:28.869Z,26.27
2018-05-18T20:08:58.682Z,28.37
2018-05-18T20:11:28.394Z,25.17
2018-05-18T20:13:57.998Z,28.87
2018-05-18T20:16:28.219Z,20.97
2018-05-18T20:18:57.929Z,24.23
2018-05-18T20:21:28.459Z,22.80
2018-05-18T20:23:58.485Z,23.00
2018-05-18T20:26:28.080Z,27.07
2018-05-18T20:28:59.429Z,26.53
2018-05-18T20:31:29.448Z,25.40
2018-05-18T20:33:59.358Z,19.80
2018-05-18T20:36:29.485Z,25.87
2018-05-18T20:38:59.083Z,24.77
2018-05-18T20:41:29.104Z,28.50
2018-05-18T20:43:59.015Z,23.90
2018-05-18T20:46:29.030Z,25.57
2018-05-18T20:48:59.359Z,24.50
2018-05-18T20:51:29.486Z,25.07
2018-05-18T20:53:59.904Z,28.13
2018-05-18T20:56:30.140Z,24.30
2018-05-18T20:58:59.845Z,26.77
2018-05-18T21:01:29.547Z,30.57
2018-05-18T21:03:59.566Z,22.43
2018-05-18T21:06:29.476Z,25.90
2018-05-18T21:08:59.896Z,22.20
2018-05-18T21:11:29.842Z,25.00
2018-05-18T21:13:59.551Z,20.83
2018-05-18T21:16:29.548Z,24.83
2018-05-18T21:18:59.362Z,23.13
2018-05-18T21:21:29.381Z,21.00
2018-05-18T21:23:59.503Z,24.47
2018-05-18T21:26:29.309Z,27.30
2018-05-18T21:28:58.903Z,24.27
2018-05-18T21:31:28.533Z,23.40
2018-05-18T21:33:58.333Z,26.97
2018-05-18T21:36:28.032Z,19.70
2018-05-18T21:38:57.637Z,23.60
2018-05-18T21:41:27.595Z,20.30
2018-05-18T21:43:57.369Z,24.17
2018-05-18T21:46:27.385Z,25.87
2018-05-18T21:48:57.310Z,23.17
2018-05-18T21:51:27.118Z,24.87
2018-05-18T21:53:57.354Z,19.47
2018-05-18T21:56:27.473Z,22.03
2018-05-18T21:58:57.050Z,19.50
2018-05-18T22:01:27.084Z,25.23
2018-05-18T22:03:57.816Z,19.00
2018-05-18T22:06:27.618Z,21.30
2018-05-18T22:08:57.537Z,23.13
2018-05-18T22:11:27.457Z,18.17
2018-05-18T22:13:57.355Z,21.80
2018-05-18T22:16:27.275Z,25.87
2018-05-18T22:18:57.904Z,20.60
2018-05-18T22:21:28.340Z,20.60
2018-05-18T22:23:58.036Z,22.37
2018-05-18T22:26:28.054Z,20.40
2018-05-18T22:28:58.492Z,23.77
2018-05-18T22:31:28.714Z,23.57
2018-05-18T22:33:58.526Z,18.63
2018-05-18T22:36:30.571Z,23.53
2018-05-18T22:39:00.385Z,21.97
2018-05-18T22:41:30.911Z,20.47
2018-05-18T22:44:00.958Z,19.53
2018-05-18T22:46:31.065Z,24.27
2018-05-18T22:49:00.759Z,26.63
2018-05-18T22:51:30.475Z,26.70
2018-05-18T22:54:00.689Z,20.30
2018-05-18T22:56:30.409Z,22.80
2018-05-18T22:59:00.124Z,23.47
2018-05-18T23:01:30.146Z,20.77
2018-05-18T23:03:59.958Z,24.87
2018-05-18T23:06:29.952Z,20.43
2018-05-18T23:08:59.984Z,22.60
2018-05-18T23:11:30.401Z,21.00
2018-05-18T23:14:00.325Z,23.83
2018-05-18T23:16:30.233Z,26.43
2018-05-18T23:18:59.954Z,26.80
2018-05-18T23:21:30.157Z,20.87
2018-05-18T23:23:59.656Z,25.57
2018-05-18T23:26:29.368Z,21.67
2018-05-18T23:28:58.976Z,23.13
2018-05-18T23:31:28.789Z,22.00
2018-05-18T23:33:58.711Z,24.60
2018-05-18T23:36:28.523Z,21.20
2018-05-18T23:38:58.333Z,24.50
2018-05-18T23:41:27.929Z,23.63
2018-05-18T23:43:57.637Z,19.93
2018-05-18T23:46:27.752Z,24.40
2018-05-18T23:48:57.363Z,21.30
2018-05-18T23:51:27.074Z,23.77
2018-05-18T23:53:56.901Z,21.90
2018-05-18T23:56:26.823Z,26.40
2018-05-18T23:58:57.021Z,22.47
